Gillette, WY

7:04 PM MST on December 25, 2014 (GMT -0700)
South Gillette, Swanson Road | Change Station
CLOSE
Current Station
Personal Weather Station
Location: Gillette, WY
Elevation: 4580 ft
Nearby Weather Stations

Elev 4580 ft 44.24 °N, 105.48 °W | Updated 3 seconds ago

Overcast
Overcast
18.3 °F
Feels Like 5 °F
N
13.0
Wind Variable Wind from North
Gusts 15.2 mph

Today
High -- | Low -- °F
--% Chance of Precip.
Yesterday
High -- | Low -- °F
Precip. -- in
7:36 AM 4:28 PM
Waxing Crescent, 21% visible
Pressure 30.04 in
Visibility 8.0 miles
Clouds Overcast 300 ft
Windchill 5 °F
Dew Point 13 °F
Humidity 78%
Rainfall 0.00 in
Snow Depth Not available.
UV 0 out of 12
Pollen .10 out of 12
Air Quality Not available.
Flu Activity Not available.
METAR KGCC 260153Z AUTO 02011KT 8SM OVC003 M07/M08 A2991 RMK AO2 SLP171 I1001 T10721083 TSNO

More Conditions Fewer Conditions

Pressure 30.04 in
Visibility 8.0 miles
Clouds Overcast 300 ft
Windchill 5 °F
Dew Point 13 °F
Humidity 78%
Rainfall 0.00 in
Snow Depth Not available.
UV 0 out of 12
Pollen .10 out of 12
Air Quality Not available.
Flu Activity Not available.
METAR KGCC 260153Z AUTO 02011KT 8SM OVC003 M07/M08 A2991 RMK AO2 SLP171 I1001 T10721083 TSNO

More Conditions Fewer Conditions

10-Day Weather Forecast

Almanac

Astronomy

Dec. 25, 2014 Rise Set
Actual Time
Civil Twilight
Nautical Twilight
Astronomical Twilight
Moon
Length of Visible Light
Length of Day
Tomorrow will be .
, % of the Moon is Illuminated

Today's Extremes

State Highs State Lows

Community

WunderPhotos

Upload Photos

1,780,504 photos uploaded!

WunderBlogs® & News

Nearby

Air Quality

  Air Quality AQ Index Pollutant
Not available.

Snow Depth

Station Depth Elevation

Earthquake Activity

City Distance Mag. Time & Date
Minimum magnitude displayed is 2.5.

Coastal Water Temperatures

Place Temperature

Nearby Weather Stations